createdAt,value
2017-12-14T00:01:48.246Z,98.00
2017-12-14T00:04:14.454Z,97.90
2017-12-14T00:06:40.639Z,98.00
2017-12-14T00:09:06.809Z,97.90
2017-12-14T00:11:32.992Z,97.90
2017-12-14T00:13:59.168Z,98.10
2017-12-14T00:16:25.415Z,97.90
2017-12-14T00:18:51.575Z,98.00
2017-12-14T00:21:17.764Z,97.70
2017-12-14T00:23:43.936Z,97.70
2017-12-14T00:26:10.226Z,97.50
2017-12-14T00:28:36.426Z,97.50
2017-12-14T00:31:02.576Z,97.60
2017-12-14T00:33:28.819Z,97.60
2017-12-14T00:35:55.730Z,97.60
2017-12-14T00:38:21.877Z,97.60
2017-12-14T00:40:48.803Z,97.80
2017-12-14T00:43:14.965Z,97.80
2017-12-14T00:45:42.021Z,97.90
2017-12-14T00:48:08.211Z,97.90
2017-12-14T00:50:34.376Z,98.00
2017-12-14T00:53:00.602Z,98.10
2017-12-14T00:55:26.787Z,98.00
2017-12-14T00:57:53.767Z,98.20
2017-12-14T01:00:19.920Z,98.20
2017-12-14T01:02:46.142Z,98.10
2017-12-14T01:05:12.384Z,98.10
2017-12-14T01:07:38.572Z,98.10
2017-12-14T01:10:05.457Z,98.00
2017-12-14T01:12:31.702Z,98.00
2017-12-14T01:14:57.847Z,98.00
2017-12-14T01:17:24.008Z,98.30
2017-12-14T01:19:50.248Z,98.50
2017-12-14T01:22:16.379Z,98.50
2017-12-14T01:24:42.739Z,98.50
2017-12-14T01:27:08.952Z,98.60
2017-12-14T01:29:35.144Z,98.80
2017-12-14T01:32:01.352Z,98.60
2017-12-14T01:34:28.228Z,98.80
2017-12-14T01:36:54.439Z,98.80
2017-12-14T01:39:20.644Z,99.10
2017-12-14T01:41:47.564Z,99.30
2017-12-14T01:44:13.745Z,99.20
2017-12-14T01:46:39.934Z,99.30
2017-12-14T01:49:06.831Z,99.60
2017-12-14T01:51:33.032Z,99.50
2017-12-14T01:53:59.227Z,99.60
2017-12-14T01:56:26.180Z,99.80
2017-12-14T01:58:53.068Z,99.80
2017-12-14T02:01:19.200Z,99.80
2017-12-14T02:03:45.355Z,99.90
2017-12-14T02:06:11.525Z,99.80
2017-12-14T02:08:37.744Z,99.90
2017-12-14T02:11:03.929Z,99.90
2017-12-14T02:13:30.088Z,99.90
2017-12-14T02:15:56.286Z,99.90
2017-12-14T02:18:23.224Z,99.90
2017-12-14T02:20:49.407Z,99.90
2017-12-14T02:23:15.566Z,99.90
2017-12-14T02:25:41.839Z,99.90
2017-12-14T02:28:08.011Z,99.90
2017-12-14T02:30:34.180Z,99.90
2017-12-14T02:33:00.340Z,99.90
2017-12-14T02:35:26.488Z,99.90
2017-12-14T02:37:52.636Z,99.90
2017-12-14T02:40:18.829Z,99.90
2017-12-14T02:42:44.995Z,99.90
2017-12-14T02:45:11.954Z,99.90
2017-12-14T02:47:38.126Z,99.90
2017-12-14T02:50:04.291Z,99.90
2017-12-14T02:52:31.370Z,99.90
2017-12-14T02:54:57.650Z,99.90
2017-12-14T02:57:23.842Z,99.90
2017-12-14T02:59:49.980Z,99.90
2017-12-14T03:02:16.216Z,99.90
2017-12-14T03:04:42.565Z,99.90
2017-12-14T03:07:08.768Z,99.90
2017-12-14T03:09:34.945Z,99.90
2017-12-14T03:12:01.820Z,99.90
2017-12-14T03:14:27.971Z,99.90
2017-12-14T03:16:54.167Z,99.90
2017-12-14T03:19:20.323Z,99.90
2017-12-14T03:21:46.556Z,99.90
2017-12-14T03:24:12.708Z,99.90
2017-12-14T03:26:39.608Z,99.90
2017-12-14T03:29:05.804Z,99.90
2017-12-14T03:31:31.981Z,99.90
2017-12-14T03:33:58.895Z,99.90
2017-12-14T03:36:25.044Z,99.90
2017-12-14T03:38:51.202Z,99.90
2017-12-14T03:41:18.156Z,99.90
2017-12-14T03:43:45.039Z,99.90
2017-12-14T03:46:11.223Z,99.90
2017-12-14T03:48:38.115Z,99.90
2017-12-14T03:51:04.306Z,99.90
2017-12-14T03:53:30.508Z,99.90
2017-12-14T03:55:58.288Z,99.90
2017-12-14T03:58:25.195Z,99.90
2017-12-14T04:00:51.330Z,99.90
2017-12-14T04:03:17.463Z,99.90
2017-12-14T04:05:44.384Z,99.70
2017-12-14T04:08:10.539Z,99.70
2017-12-14T04:10:37.453Z,99.40
2017-12-14T04:13:03.672Z,99.40
2017-12-14T04:15:29.831Z,99.30
2017-12-14T04:17:56.723Z,99.10
2017-12-14T04:20:22.934Z,99.10
2017-12-14T04:22:49.204Z,98.90
2017-12-14T04:25:17.385Z,98.60
2017-12-14T04:27:43.547Z,98.70
2017-12-14T04:30:09.708Z,98.80
2017-12-14T04:32:35.889Z,98.50
2017-12-14T04:35:02.777Z,98.40
2017-12-14T04:37:28.948Z,98.40
2017-12-14T04:39:55.843Z,98.40
2017-12-14T04:42:22.018Z,98.30
2017-12-14T04:44:48.945Z,98.10
2017-12-14T04:47:15.083Z,98.10
2017-12-14T04:49:41.993Z,98.10
2017-12-14T04:52:08.159Z,98.10
2017-12-14T04:54:34.315Z,97.90
2017-12-14T04:57:00.510Z,97.90
2017-12-14T04:59:26.697Z,97.90
2017-12-14T05:01:53.632Z,97.70
2017-12-14T05:04:19.810Z,97.70
2017-12-14T05:06:46.683Z,97.70
2017-12-14T05:09:12.856Z,97.60
2017-12-14T05:11:39.047Z,97.60
2017-12-14T05:14:05.227Z,97.60
2017-12-14T05:16:32.136Z,97.60
2017-12-14T05:18:58.331Z,97.70
2017-12-14T05:21:24.497Z,97.60
2017-12-14T05:23:50.639Z,97.70
2017-12-14T05:26:16.818Z,97.80
2017-12-14T05:28:42.989Z,98.00
2017-12-14T05:31:09.172Z,97.70
2017-12-14T05:33:35.413Z,97.50
2017-12-14T05:36:01.571Z,97.50
2017-12-14T05:38:27.832Z,97.40
2017-12-14T05:40:54.038Z,97.30
2017-12-14T05:43:20.190Z,97.00
2017-12-14T05:45:46.490Z,96.80
2017-12-14T05:48:13.375Z,96.80
2017-12-14T05:50:39.549Z,96.80
2017-12-14T05:53:05.741Z,96.50
2017-12-14T05:55:31.943Z,96.40
2017-12-14T05:57:58.119Z,96.90
2017-12-14T06:00:24.304Z,96.80
2017-12-14T06:02:50.479Z,97.30
2017-12-14T06:05:16.620Z,97.50
2017-12-14T06:07:43.519Z,97.30
2017-12-14T06:10:09.716Z,97.30
2017-12-14T06:12:35.885Z,97.30
2017-12-14T06:15:02.066Z,97.30
2017-12-14T06:17:28.235Z,97.10
2017-12-14T06:19:54.402Z,97.10
2017-12-14T06:22:20.594Z,97.20
2017-12-14T06:24:46.730Z,97.10
2017-12-14T06:27:13.664Z,97.00
2017-12-14T06:29:39.795Z,97.00
2017-12-14T06:32:06.704Z,97.20
2017-12-14T06:34:32.923Z,97.10
2017-12-14T06:36:59.099Z,96.90
2017-12-14T06:39:26.031Z,97.00
2017-12-14T06:41:52.167Z,96.90
2017-12-14T06:44:18.427Z,96.90
2017-12-14T06:46:44.598Z,97.10
2017-12-14T06:49:10.775Z,97.20
2017-12-14T06:51:37.011Z,97.40
2017-12-14T06:54:03.178Z,97.50
2017-12-14T06:56:29.334Z,97.60
2017-12-14T06:58:56.343Z,97.70
2017-12-14T07:01:22.484Z,97.70
2017-12-14T07:03:48.642Z,97.70
2017-12-14T07:06:14.838Z,97.70
2017-12-14T07:08:41.028Z,97.80
2017-12-14T07:11:07.180Z,97.70
2017-12-14T07:13:33.374Z,97.80
2017-12-14T07:15:59.531Z,97.60
2017-12-14T07:18:25.666Z,98.10
2017-12-14T07:20:51.924Z,97.60
2017-12-14T07:23:18.087Z,97.40
2017-12-14T07:25:44.276Z,97.40
2017-12-14T07:28:10.428Z,97.40
2017-12-14T07:30:38.177Z,97.00
2017-12-14T07:33:04.389Z,96.90
2017-12-14T07:35:31.283Z,96.60
2017-12-14T07:37:57.508Z,96.60
2017-12-14T07:40:23.725Z,96.50
2017-12-14T07:43:02.123Z,96.50
2017-12-14T07:48:26.755Z,96.50
2017-12-14T07:50:52.986Z,96.60
2017-12-14T07:53:19.240Z,96.70
2017-12-14T07:55:45.540Z,96.80
2017-12-14T07:58:11.783Z,96.50
2017-12-14T08:00:38.055Z,96.40
2017-12-14T08:03:04.305Z,96.00
2017-12-14T08:05:31.278Z,96.10
2017-12-14T08:07:57.502Z,96.10
2017-12-14T08:10:23.757Z,96.00
2017-12-14T08:12:50.061Z,96.20
2017-12-14T08:15:16.323Z,95.70
2017-12-14T08:17:42.600Z,95.90
2017-12-14T08:20:09.614Z,95.40
2017-12-14T08:22:35.886Z,95.40
2017-12-14T08:25:02.122Z,95.30
2017-12-14T08:27:28.382Z,95.40
2017-12-14T08:29:54.642Z,95.20
2017-12-14T08:32:20.890Z,95.10
2017-12-14T08:34:47.866Z,95.30
2017-12-14T08:37:14.207Z,95.30
2017-12-14T08:39:40.419Z,95.20
2017-12-14T08:42:07.098Z,95.10
2017-12-14T08:44:33.502Z,95.20
2017-12-14T08:46:59.843Z,95.20
2017-12-14T08:49:26.142Z,95.30
2017-12-14T08:51:52.995Z,95.20
2017-12-14T08:54:19.266Z,95.40
2017-12-14T08:56:45.510Z,95.40
2017-12-14T08:59:11.790Z,95.40
2017-12-14T09:01:38.618Z,95.50
2017-12-14T09:04:04.869Z,95.50
2017-12-14T09:06:31.092Z,95.60
2017-12-14T09:08:57.858Z,95.60
2017-12-14T09:11:24.138Z,95.50
2017-12-14T09:13:50.432Z,95.40
2017-12-14T09:16:17.418Z,95.40
2017-12-14T09:18:43.753Z,95.40
2017-12-14T09:21:10.064Z,95.30
2017-12-14T09:23:36.304Z,95.30
2017-12-14T09:26:02.567Z,95.10
2017-12-14T09:28:28.790Z,95.00
2017-12-14T09:30:55.034Z,95.00
2017-12-14T09:35:56.038Z,94.90
2017-12-14T09:38:22.296Z,94.80
2017-12-14T09:40:48.587Z,94.80
2017-12-14T09:43:14.823Z,94.60
2017-12-14T09:45:41.089Z,94.70
2017-12-14T09:48:08.010Z,94.90
2017-12-14T09:50:34.378Z,94.70
2017-12-14T09:53:01.514Z,94.40
2017-12-14T09:55:29.583Z,94.40
2017-12-14T09:57:55.870Z,94.30
2017-12-14T10:00:22.198Z,94.40
2017-12-14T10:02:48.444Z,94.20
2017-12-14T10:05:15.498Z,94.30
2017-12-14T10:07:41.769Z,94.30
2017-12-14T10:10:08.013Z,94.40
2017-12-14T10:12:35.145Z,94.30
2017-12-14T10:15:01.402Z,94.30
2017-12-14T10:17:27.660Z,94.20
2017-12-14T10:19:53.909Z,94.10
2017-12-14T10:22:20.174Z,94.40
2017-12-14T10:24:46.467Z,94.30
2017-12-14T10:27:13.554Z,94.20
2017-12-14T10:29:40.560Z,93.90
2017-12-14T10:32:06.894Z,93.90
2017-12-14T10:34:33.224Z,94.20
2017-12-14T10:36:59.479Z,94.30
2017-12-14T10:39:26.470Z,94.10
2017-12-14T10:41:52.770Z,94.10
2017-12-14T10:44:19.009Z,94.00
2017-12-14T10:46:45.245Z,93.80
2017-12-14T10:49:11.555Z,93.90
2017-12-14T10:51:37.804Z,94.10
2017-12-14T10:54:04.106Z,94.10
2017-12-14T10:56:30.359Z,94.30
2017-12-14T10:58:56.652Z,94.10
2017-12-14T11:01:28.747Z,94.00
2017-12-14T11:03:55.029Z,94.20
2017-12-14T11:06:21.305Z,93.90
2017-12-14T11:08:47.657Z,94.10
2017-12-14T11:11:14.384Z,94.00
2017-12-14T11:13:40.814Z,94.10
2017-12-14T11:16:07.061Z,94.00
2017-12-14T11:18:33.369Z,94.20
2017-12-14T11:20:59.815Z,94.20
2017-12-14T11:23:27.105Z,94.50
2017-12-14T11:25:53.354Z,94.40
2017-12-14T11:28:20.345Z,94.60
2017-12-14T11:30:46.607Z,94.60
2017-12-14T11:33:12.942Z,94.50
2017-12-14T11:35:39.232Z,94.40
2017-12-14T11:38:05.483Z,94.40
2017-12-14T11:40:31.739Z,94.50
2017-12-14T11:42:57.970Z,94.30
2017-12-14T11:45:24.995Z,94.50
2017-12-14T11:47:51.238Z,94.40
2017-12-14T11:50:17.622Z,94.60
2017-12-14T11:52:44.615Z,94.50
2017-12-14T11:55:10.888Z,94.70
2017-12-14T11:57:37.118Z,95.00
2017-12-14T12:00:03.374Z,95.30
2017-12-14T12:02:29.663Z,95.00
2017-12-14T12:04:55.897Z,95.20
2017-12-14T12:07:22.178Z,95.20
2017-12-14T12:09:49.188Z,95.30
2017-12-14T12:12:15.466Z,95.30
2017-12-14T12:14:43.581Z,95.30
2017-12-14T12:17:09.826Z,95.30
2017-12-14T12:19:36.140Z,95.60
2017-12-14T12:22:02.517Z,95.60
2017-12-14T12:24:29.589Z,95.30
2017-12-14T12:26:55.966Z,95.20
2017-12-14T12:29:22.312Z,95.40
2017-12-14T12:31:48.728Z,95.40
2017-12-14T12:34:15.073Z,95.60
2017-12-14T12:36:42.208Z,95.50
2017-12-14T12:39:08.600Z,95.50
2017-12-14T12:41:34.961Z,95.70
2017-12-14T12:44:01.427Z,95.30
2017-12-14T12:46:27.847Z,95.60
2017-12-14T12:48:54.237Z,95.20
2017-12-14T12:51:20.568Z,95.20
2017-12-14T12:53:46.926Z,95.10
2017-12-14T12:56:13.425Z,95.00
2017-12-14T12:58:39.761Z,95.00
2017-12-14T13:01:06.087Z,94.70
2017-12-14T13:03:32.406Z,94.70
2017-12-14T13:05:58.701Z,94.60
2017-12-14T13:08:25.099Z,94.50
2017-12-14T13:10:51.415Z,94.20
2017-12-14T13:13:17.734Z,94.00
2017-12-14T13:15:44.086Z,94.20
2017-12-14T13:18:10.401Z,94.20
2017-12-14T13:20:36.738Z,93.90
2017-12-14T13:23:03.100Z,94.10
2017-12-14T13:25:29.503Z,93.90
2017-12-14T13:27:55.858Z,93.70
2017-12-14T13:30:22.270Z,93.90
2017-12-14T13:32:48.636Z,93.70
2017-12-14T13:35:15.217Z,93.80
2017-12-14T13:37:41.635Z,93.50
2017-12-14T13:40:08.005Z,93.10
2017-12-14T13:42:41.550Z,93.30
2017-12-14T13:45:08.639Z,93.20
2017-12-14T13:47:34.896Z,93.20
2017-12-14T13:50:01.882Z,92.90
2017-12-14T13:52:28.860Z,93.30
2017-12-14T13:54:55.330Z,93.30
2017-12-14T13:57:21.612Z,93.20
2017-12-14T13:59:48.649Z,93.30
2017-12-14T14:02:14.910Z,93.20
2017-12-14T14:04:41.309Z,93.00
2017-12-14T14:07:07.551Z,93.00
2017-12-14T14:09:33.862Z,93.10
2017-12-14T14:12:00.885Z,93.40
2017-12-14T14:14:27.146Z,93.40
2017-12-14T14:16:53.414Z,93.30
2017-12-14T14:19:19.664Z,93.40
2017-12-14T14:21:45.946Z,93.40
2017-12-14T14:24:12.173Z,93.40
2017-12-14T14:26:38.430Z,93.10
2017-12-14T14:29:04.714Z,93.30
2017-12-14T14:31:30.973Z,93.20
2017-12-14T14:33:57.238Z,93.00
2017-12-14T14:36:23.486Z,92.70
2017-12-14T14:38:57.478Z,93.10
2017-12-14T14:41:23.746Z,93.00
2017-12-14T14:43:50.011Z,93.40
2017-12-14T14:46:16.317Z,92.90
2017-12-14T14:48:42.565Z,93.00
2017-12-14T14:51:08.835Z,92.90
2017-12-14T14:53:35.813Z,93.10
2017-12-14T14:56:02.072Z,93.10
2017-12-14T14:58:28.750Z,93.10
2017-12-14T15:00:55.740Z,93.10
2017-12-14T15:03:23.599Z,93.50
2017-12-14T15:05:49.820Z,93.50
2017-12-14T15:08:16.061Z,93.30
2017-12-14T15:10:42.315Z,93.90
2017-12-14T15:13:08.653Z,94.30
2017-12-14T15:15:35.004Z,94.60
2017-12-14T15:18:01.312Z,95.10
2017-12-14T15:20:28.312Z,95.20
2017-12-14T15:22:54.813Z,95.20
2017-12-14T15:25:21.182Z,95.40
2017-12-14T15:27:47.514Z,95.50
2017-12-14T15:30:13.947Z,95.80
2017-12-14T15:32:40.353Z,95.90
2017-12-14T15:35:06.715Z,96.10
2017-12-14T15:37:33.048Z,96.20
2017-12-14T15:39:59.494Z,96.20
2017-12-14T15:42:25.922Z,96.50
2017-12-14T15:44:52.286Z,96.80
2017-12-14T15:47:18.561Z,97.00
2017-12-14T15:49:44.815Z,97.10
2017-12-14T15:52:11.137Z,97.30
2017-12-14T15:54:37.401Z,97.50
2017-12-14T15:57:04.536Z,97.50
2017-12-14T15:59:31.065Z,97.40
2017-12-14T16:01:57.368Z,97.50
2017-12-14T16:04:23.657Z,97.40
2017-12-14T16:06:50.649Z,97.80
2017-12-14T16:09:16.919Z,97.80
2017-12-14T16:11:43.178Z,97.80
2017-12-14T16:14:09.498Z,97.80
2017-12-14T16:16:35.804Z,97.50
2017-12-14T16:19:02.097Z,97.70
2017-12-14T16:21:28.394Z,97.90
2017-12-14T16:23:54.638Z,98.00
2017-12-14T16:26:20.905Z,97.70
2017-12-14T16:28:47.161Z,97.80
2017-12-14T16:31:13.409Z,98.30
2017-12-14T16:33:39.878Z,98.50
2017-12-14T16:36:06.154Z,98.50
2017-12-14T16:38:33.131Z,99.00
2017-12-14T16:40:59.413Z,99.00
2017-12-14T16:43:28.155Z,99.30
2017-12-14T16:45:54.437Z,99.30
2017-12-14T16:48:20.753Z,99.50
2017-12-14T16:50:58.432Z,99.40
2017-12-14T16:53:25.104Z,99.60
2017-12-14T16:55:51.490Z,99.90
2017-12-14T16:58:19.552Z,99.90
2017-12-14T17:00:46.110Z,99.80
2017-12-14T17:03:12.386Z,99.90
2017-12-14T17:05:38.805Z,99.90
2017-12-14T17:08:06.096Z,99.90
2017-12-14T17:10:32.347Z,99.90
2017-12-14T17:12:58.777Z,99.90
2017-12-14T17:15:25.014Z,99.90
2017-12-14T17:17:51.439Z,99.90
2017-12-14T17:20:18.308Z,99.90
2017-12-14T17:22:44.574Z,99.90
2017-12-14T17:25:10.916Z,99.90
2017-12-14T17:27:38.115Z,99.90
2017-12-14T17:30:04.403Z,99.90
2017-12-14T17:32:31.211Z,99.90
2017-12-14T17:34:58.595Z,99.90
2017-12-14T17:37:24.803Z,99.90
2017-12-14T17:39:51.040Z,99.90
2017-12-14T17:42:17.295Z,99.90
2017-12-14T17:44:43.542Z,99.90
2017-12-14T17:47:10.604Z,99.90
2017-12-14T17:49:37.745Z,99.90
2017-12-14T17:52:04.740Z,99.90
2017-12-14T17:54:31.041Z,99.90
2017-12-14T17:56:57.414Z,99.90
2017-12-14T17:59:24.036Z,99.90
2017-12-14T18:01:50.406Z,99.90
2017-12-14T18:04:16.793Z,99.90
2017-12-14T18:06:43.081Z,99.90
2017-12-14T18:09:10.076Z,99.90
2017-12-14T18:11:36.419Z,99.90
2017-12-14T18:14:02.834Z,99.90
2017-12-14T18:16:29.608Z,99.90
2017-12-14T18:18:55.863Z,99.90
2017-12-14T18:21:22.935Z,99.80
2017-12-14T18:23:49.363Z,99.80
2017-12-14T18:26:16.345Z,99.90
2017-12-14T18:28:45.273Z,99.70
2017-12-14T18:31:12.334Z,99.60
2017-12-14T18:33:38.704Z,99.60
2017-12-14T18:36:05.121Z,99.50
2017-12-14T18:38:31.441Z,99.40
2017-12-14T18:40:58.525Z,99.50
2017-12-14T18:43:24.822Z,99.50
2017-12-14T18:45:51.074Z,99.40
2017-12-14T18:48:17.359Z,99.40
2017-12-14T18:50:44.332Z,99.60
2017-12-14T18:53:10.577Z,99.60
2017-12-14T18:55:36.862Z,99.60
2017-12-14T18:58:03.950Z,99.60
2017-12-14T19:00:30.271Z,99.60
2017-12-14T19:02:56.531Z,99.60
2017-12-14T19:05:22.941Z,99.60
2017-12-14T19:07:49.226Z,99.70
2017-12-14T19:10:15.535Z,99.70
2017-12-14T19:12:42.328Z,99.80
2017-12-14T19:15:08.806Z,99.70
2017-12-14T19:17:35.152Z,99.80
2017-12-14T19:20:01.605Z,99.70
2017-12-14T19:22:28.631Z,99.90
2017-12-14T19:27:58.119Z,99.80
2017-12-14T19:30:24.502Z,99.90
2017-12-14T19:32:51.547Z,99.50
2017-12-14T19:35:18.294Z,99.50
2017-12-14T19:37:44.598Z,99.50
2017-12-14T19:40:10.861Z,99.40
2017-12-14T19:42:37.899Z,99.50
2017-12-14T19:45:04.943Z,99.50
2017-12-14T19:47:31.989Z,99.60
2017-12-14T19:49:59.052Z,99.60
2017-12-14T19:52:26.117Z,99.70
2017-12-14T19:54:52.390Z,99.70
2017-12-14T19:57:20.467Z,99.80
2017-12-14T19:59:46.977Z,99.70
2017-12-14T20:02:13.303Z,99.70
2017-12-14T20:04:41.047Z,99.80
2017-12-14T20:07:07.351Z,99.70
2017-12-14T20:09:34.840Z,99.90
2017-12-14T20:12:01.394Z,99.90
2017-12-14T20:14:27.780Z,99.90
2017-12-14T20:16:54.300Z,99.90
2017-12-14T20:19:20.754Z,99.90
2017-12-14T20:21:47.115Z,99.90
2017-12-14T20:24:13.424Z,99.90
2017-12-14T20:26:39.789Z,99.90
2017-12-14T20:29:07.843Z,99.90
2017-12-14T20:31:34.463Z,99.90
2017-12-14T20:34:00.823Z,99.90
2017-12-14T20:36:27.776Z,99.90
2017-12-14T20:38:55.342Z,99.90
2017-12-14T20:41:21.789Z,99.90
2017-12-14T20:43:48.620Z,99.90
2017-12-14T20:46:16.520Z,99.90
2017-12-14T20:48:43.012Z,99.90
2017-12-14T20:51:10.246Z,99.90
2017-12-14T20:53:37.505Z,99.90
2017-12-14T20:56:05.885Z,99.90
2017-12-14T20:58:35.142Z,99.90
2017-12-14T21:01:01.564Z,99.90
2017-12-14T21:03:27.978Z,99.90
2017-12-14T21:05:54.363Z,99.90
2017-12-14T21:08:20.643Z,99.90
2017-12-14T21:10:48.157Z,99.90
2017-12-14T21:15:55.498Z,99.90
2017-12-14T21:18:21.815Z,99.90
2017-12-14T21:20:48.067Z,99.90
2017-12-14T21:23:15.238Z,99.90
2017-12-14T21:25:41.630Z,99.90
2017-12-14T21:28:08.640Z,99.90
2017-12-14T21:30:34.984Z,99.90
2017-12-14T21:33:02.015Z,99.90
2017-12-14T21:35:28.304Z,99.90
2017-12-14T21:37:55.376Z,99.90
2017-12-14T21:40:22.332Z,99.90
2017-12-14T21:42:48.646Z,99.90
2017-12-14T21:45:14.877Z,99.90
2017-12-14T21:47:41.173Z,99.90
2017-12-14T21:50:07.423Z,99.90
2017-12-14T21:52:33.706Z,99.90
2017-12-14T21:54:59.972Z,99.80
2017-12-14T21:57:26.335Z,99.70
2017-12-14T21:59:52.676Z,99.60
2017-12-14T22:02:19.027Z,99.60
2017-12-14T22:04:45.285Z,99.60
2017-12-14T22:07:12.350Z,99.70
2017-12-14T22:09:38.670Z,99.70
2017-12-14T22:12:04.993Z,99.70
2017-12-14T22:14:31.487Z,99.60
2017-12-14T22:16:57.827Z,99.50
2017-12-14T22:19:24.223Z,99.50
2017-12-14T22:21:50.474Z,99.50
2017-12-14T22:24:16.774Z,99.50
2017-12-14T22:26:43.143Z,99.50
2017-12-14T22:29:09.431Z,99.60
2017-12-14T22:31:35.715Z,99.60
2017-12-14T22:34:02.067Z,99.50
2017-12-14T22:36:28.365Z,99.80
2017-12-14T22:38:54.610Z,99.50
2017-12-14T22:41:20.887Z,99.40
2017-12-14T22:43:47.142Z,99.40
2017-12-14T22:46:13.486Z,99.20
2017-12-14T22:48:39.900Z,99.30
2017-12-14T22:51:06.151Z,99.20
2017-12-14T22:53:32.409Z,99.20
2017-12-14T22:55:59.374Z,99.20
2017-12-14T22:58:25.625Z,99.20
2017-12-14T23:00:51.856Z,99.10
2017-12-14T23:03:18.229Z,99.10
2017-12-14T23:05:45.235Z,99.20
2017-12-14T23:08:11.482Z,99.20
2017-12-14T23:10:37.729Z,99.20
2017-12-14T23:13:04.088Z,99.10
2017-12-14T23:15:30.434Z,99.00
2017-12-14T23:17:56.659Z,99.20
2017-12-14T23:20:22.936Z,99.20
2017-12-14T23:22:50.020Z,99.00
2017-12-14T23:25:16.293Z,99.00
2017-12-14T23:27:45.020Z,99.00
2017-12-14T23:30:11.323Z,99.00
2017-12-14T23:32:37.571Z,99.00
2017-12-14T23:35:04.635Z,99.10
2017-12-14T23:37:30.867Z,99.10
2017-12-14T23:39:59.447Z,99.00
2017-12-14T23:42:26.637Z,98.90
2017-12-14T23:44:53.171Z,98.90
2017-12-14T23:47:19.461Z,98.80
2017-12-14T23:49:45.719Z,98.80
2017-12-14T23:52:12.181Z,98.70
2017-12-14T23:54:38.416Z,98.60
2017-12-14T23:57:04.699Z,98.60
2017-12-14T23:59:31.763Z,98.40
